Home > Products > Valid Products > TAF

000
FTUS43 KMKX 210650 AAA
TAFMSN
TAF AMD
KMSN 210650Z 2107/2206 17004KT 6SM BR BKN010
      TEMPO 2108/2110 5SM BR BKN008
     FM211000 16005KT 3SM -FZDZ BR OVC008
     FM211300 16009KT 3SM -FZDZ BR OVC003
     FM211600 17009KT 3SM -DZ BR OVC008
     FM211800 17010KT 6SM BR OVC010
     FM220400 17011KT P6SM OVC015=



000
FTUS43 KMKX 210650 AAA
TAFMSN
TAF AMD
KMSN 210650Z 2107/2206 17004KT 6SM BR BKN010
      TEMPO 2108/2110 5SM BR BKN008
     FM211000 16005KT 3SM -FZDZ BR OVC008
     FM211300 16009KT 3SM -FZDZ BR OVC003
     FM211600 17009KT 3SM -DZ BR OVC008
     FM211800 17010KT 6SM BR OVC010
     FM220400 17011KT P6SM OVC015=



000
FTUS43 KMKX 210650 AAA
TAFMSN
TAF AMD
KMSN 210650Z 2107/2206 17004KT 6SM BR BKN010
      TEMPO 2108/2110 5SM BR BKN008
     FM211000 16005KT 3SM -FZDZ BR OVC008
     FM211300 16009KT 3SM -FZDZ BR OVC003
     FM211600 17009KT 3SM -DZ BR OVC008
     FM211800 17010KT 6SM BR OVC010
     FM220400 17011KT P6SM OVC015=



000
FTUS43 KMKX 210650 AAA
TAFMSN
TAF AMD
KMSN 210650Z 2107/2206 17004KT 6SM BR BKN010
      TEMPO 2108/2110 5SM BR BKN008
     FM211000 16005KT 3SM -FZDZ BR OVC008
     FM211300 16009KT 3SM -FZDZ BR OVC003
     FM211600 17009KT 3SM -DZ BR OVC008
     FM211800 17010KT 6SM BR OVC010
     FM220400 17011KT P6SM OVC015=



000
FTUS43 KMKX 210520
TAFMSN
TAF
KMSN 210520Z 2106/2206 17004KT 6SM BR BKN020 OVC050
     FM211000 16005KT 3SM -FZDZ BR OVC008
     FM211300 16009KT 3SM -FZDZ BR OVC003
     FM211600 17009KT 3SM -DZ BR OVC008
     FM211800 17010KT 6SM BR OVC010
     FM220400 17011KT P6SM OVC015=



000
FTUS43 KMKX 210520
TAFMKE
TAF
KMKE 210520Z 2106/2212 20006KT P6SM OVC035
     FM210800 20006KT P6SM OVC025
     FM211100 19006KT P6SM OVC015
     FM211200 18006KT P6SM -FZDZ OVC010
     FM211500 18008KT 6SM -DZ BR OVC010
     FM212000 18010KT P6SM OVC015
     FM220500 18012KT P6SM OVC025=



000
FTUS43 KMKX 210520
TAFMSN
TAF
KMSN 210520Z 2106/2206 17004KT 6SM BR BKN020 OVC050
     FM211000 16005KT 3SM -FZDZ BR OVC008
     FM211300 16009KT 3SM -FZDZ BR OVC003
     FM211600 17009KT 3SM -DZ BR OVC008
     FM211800 17010KT 6SM BR OVC010
     FM220400 17011KT P6SM OVC015=



000
FTUS43 KMKX 210520
TAFMKE
TAF
KMKE 210520Z 2106/2212 20006KT P6SM OVC035
     FM210800 20006KT P6SM OVC025
     FM211100 19006KT P6SM OVC015
     FM211200 18006KT P6SM -FZDZ OVC010
     FM211500 18008KT 6SM -DZ BR OVC010
     FM212000 18010KT P6SM OVC015
     FM220500 18012KT P6SM OVC025=



000
FTUS43 KMKX 210200 AAA
TAFMSN
TAF AMD
KMSN 210200Z 2102/2124 16005KT P6SM -SN SCT010 OVC020
     FM210800 16004KT 5SM BR OVC008
     FM211200 16005KT 3SM -FZDZ BR OVC003
     FM211300 16006KT 3SM -FZDZ BR OVC008
     FM211600 17009KT 5SM BR OVC008
     FM211900 17009KT 6SM BR OVC015=



000
FTUS43 KMKX 210200 AAA
TAFMSN
TAF AMD
KMSN 210200Z 2102/2124 16005KT P6SM -SN SCT010 OVC020
     FM210800 16004KT 5SM BR OVC008
     FM211200 16005KT 3SM -FZDZ BR OVC003
     FM211300 16006KT 3SM -FZDZ BR OVC008
     FM211600 17009KT 5SM BR OVC008
     FM211900 17009KT 6SM BR OVC015=



000
FTUS43 KMKX 202330
TAFMKE
TAF
KMKE 202330Z 2100/2206 19004KT P6SM -SN SCT035 OVC060
     FM210200 VRB03KT P6SM SCT030 OVC040
     FM210800 20006KT P6SM OVC030
     FM211200 18006KT 6SM -FZDZ BR OVC025
     FM211500 18007KT P6SM -DZ OVC020
     FM211800 18010G17KT P6SM OVC020
     FM220100 17011KT P6SM OVC020=



000
FTUS43 KMKX 202330
TAFMSN
TAF
KMSN 202330Z 2100/2124 16005KT P6SM -SN BKN010 OVC020
     FM210800 16004KT 5SM BR OVC003
     FM211200 16005KT 3SM -FZDZ BR OVC003
     FM211300 16006KT 3SM -FZDZ BR OVC008
     FM211600 17009KT 5SM BR OVC008
     FM211900 17009KT 6SM BR OVC015=



000
FTUS43 KMKX 202330
TAFMKE
TAF
KMKE 202330Z 2100/2206 19004KT P6SM -SN SCT035 OVC060
     FM210200 VRB03KT P6SM SCT030 OVC040
     FM210800 20006KT P6SM OVC030
     FM211200 18006KT 6SM -FZDZ BR OVC025
     FM211500 18007KT P6SM -DZ OVC020
     FM211800 18010G17KT P6SM OVC020
     FM220100 17011KT P6SM OVC020=



000
FTUS43 KMKX 202330
TAFMSN
TAF
KMSN 202330Z 2100/2124 16005KT P6SM -SN BKN010 OVC020
     FM210800 16004KT 5SM BR OVC003
     FM211200 16005KT 3SM -FZDZ BR OVC003
     FM211300 16006KT 3SM -FZDZ BR OVC008
     FM211600 17009KT 5SM BR OVC008
     FM211900 17009KT 6SM BR OVC015=



000
FTUS43 KMKX 202102 AAC
TAFMSN
TAF AMD
KMSN 202102Z 2021/2118 17006KT 2SM -SN BR OVC010
     FM202300 17004KT 6SM BR OVC012
     FM210700 VRB03KT P6SM OVC015
     FM210900 16005KT P6SM OVC015
      TEMPO 2109/2113 -FZDZ
     FM211300 16006KT P6SM -FZDZ OVC010
     FM211500 17010KT P6SM -DZ OVC010=



000
FTUS43 KMKX 202102 AAC
TAFMSN
TAF AMD
KMSN 202102Z 2021/2118 17006KT 2SM -SN BR OVC010
     FM202300 17004KT 6SM BR OVC012
     FM210700 VRB03KT P6SM OVC015
     FM210900 16005KT P6SM OVC015
      TEMPO 2109/2113 -FZDZ
     FM211300 16006KT P6SM -FZDZ OVC010
     FM211500 17010KT P6SM -DZ OVC010=



000
FTUS43 KMKX 201953 AAB
TAFMSN
TAF AMD
KMSN 201953Z 2020/2118 20004KT 5SM -SN BKN012 BKN017 OVC029
     FM202200 17004KT P6SM OVC012
     FM210700 VRB03KT P6SM OVC015
     FM210900 16005KT P6SM OVC015
      TEMPO 2109/2113 -FZDZ
     FM211300 16006KT P6SM -FZDZ OVC010
     FM211500 17010KT P6SM -DZ OVC010=



000
FTUS43 KMKX 201953 AAB
TAFMSN
TAF AMD
KMSN 201953Z 2020/2118 20004KT 5SM -SN BKN012 BKN017 OVC029
     FM202200 17004KT P6SM OVC012
     FM210700 VRB03KT P6SM OVC015
     FM210900 16005KT P6SM OVC015
      TEMPO 2109/2113 -FZDZ
     FM211300 16006KT P6SM -FZDZ OVC010
     FM211500 17010KT P6SM -DZ OVC010=



000
FTUS43 KMKX 201832 AAA
TAFMSN
TAF AMD
KMSN 201832Z 2019/2118 17006KT 5SM -SN SCT012 OVC021
     FM202200 17004KT P6SM OVC012
     FM210700 VRB03KT P6SM OVC015
     FM210900 16005KT P6SM OVC015
      TEMPO 2109/2113 -FZDZ
     FM211300 16006KT P6SM -FZDZ OVC010
     FM211500 17010KT P6SM -DZ OVC010=



000
FTUS43 KMKX 201832 AAA
TAFMSN
TAF AMD
KMSN 201832Z 2019/2118 17006KT 5SM -SN SCT012 OVC021
     FM202200 17004KT P6SM OVC012
     FM210700 VRB03KT P6SM OVC015
     FM210900 16005KT P6SM OVC015
      TEMPO 2109/2113 -FZDZ
     FM211300 16006KT P6SM -FZDZ OVC010
     FM211500 17010KT P6SM -DZ OVC010=



000
FTUS43 KMKX 201723
TAFMSN
TAF
KMSN 201723Z 2018/2118 16005KT 6SM -SN OVC010
     FM202200 17004KT P6SM OVC012
     FM210700 VRB03KT P6SM OVC015
     FM210900 16005KT P6SM OVC015
      TEMPO 2109/2113 -FZDZ
     FM211300 16006KT P6SM -FZDZ OVC010
     FM211500 17010KT P6SM -DZ OVC010=



000
FTUS43 KMKX 201723
TAFMKE
TAF
KMKE 201723Z 2018/2124 23004KT P6SM OVC070
      TEMPO 2019/2023 -SN
     FM210900 20004KT P6SM OVC030
     FM211200 18007KT P6SM OVC025
      TEMPO 2112/2116 -FZDZ
     FM211800 18013KT P6SM OVC015=



000
FTUS43 KMKX 201723
TAFMSN
TAF
KMSN 201723Z 2018/2118 16005KT 6SM -SN OVC010
     FM202200 17004KT P6SM OVC012
     FM210700 VRB03KT P6SM OVC015
     FM210900 16005KT P6SM OVC015
      TEMPO 2109/2113 -FZDZ
     FM211300 16006KT P6SM -FZDZ OVC010
     FM211500 17010KT P6SM -DZ OVC010=



000
FTUS43 KMKX 201723
TAFMKE
TAF
KMKE 201723Z 2018/2124 23004KT P6SM OVC070
      TEMPO 2019/2023 -SN
     FM210900 20004KT P6SM OVC030
     FM211200 18007KT P6SM OVC025
      TEMPO 2112/2116 -FZDZ
     FM211800 18013KT P6SM OVC015=



000
FTUS43 KMKX 201619 AAC
TAFMKE
TAF AMD
KMKE 201619Z 2016/2118 VRB03KT P6SM BKN080 OVC120
     FM210000 19004KT P6SM OVC030
     FM210900 18007KT 6SM -FZDZ OVC010
     FM211200 18011KT 5SM -FZDZ OVC010
     FM211600 18012KT 5SM -DZ OVC015=



000
FTUS43 KMKX 201619 AAC
TAFMKE
TAF AMD
KMKE 201619Z 2016/2118 VRB03KT P6SM BKN080 OVC120
     FM210000 19004KT P6SM OVC030
     FM210900 18007KT 6SM -FZDZ OVC010
     FM211200 18011KT 5SM -FZDZ OVC010
     FM211600 18012KT 5SM -DZ OVC015=



000
FTUS43 KMKX 201619 AAC
TAFMSN
TAF AMD
KMSN 201619Z 2016/2112 16005KT 6SM -SN BR BKN010 BKN023 OVC035
     FM202000 17004KT P6SM OVC015
     FM202200 17004KT P6SM OVC025
     FM210000 VRB03KT P6SM OVC020
     FM210600 VRB03KT 5SM -FZDZ OVC010
     FM210800 VRB03KT 4SM -FZDZ OVC006=



000
FTUS43 KMKX 201619 AAC
TAFMSN
TAF AMD
KMSN 201619Z 2016/2112 16005KT 6SM -SN BR BKN010 BKN023 OVC035
     FM202000 17004KT P6SM OVC015
     FM202200 17004KT P6SM OVC025
     FM210000 VRB03KT P6SM OVC020
     FM210600 VRB03KT 5SM -FZDZ OVC010
     FM210800 VRB03KT 4SM -FZDZ OVC006=



000
FTUS43 KMKX 201459 AAB
TAFMSN
TAF AMD
KMSN 201459Z 2015/2112 17005KT 5SM -SN BR BKN050 OVC060
     FM202000 17004KT P6SM OVC015
     FM202200 17004KT P6SM OVC025
     FM210000 VRB03KT P6SM OVC020
     FM210600 VRB03KT 5SM -FZDZ OVC010
     FM210800 VRB03KT 4SM -FZDZ OVC006=



000
FTUS43 KMKX 201459 AAB
TAFMSN
TAF AMD
KMSN 201459Z 2015/2112 17005KT 5SM -SN BR BKN050 OVC060
     FM202000 17004KT P6SM OVC015
     FM202200 17004KT P6SM OVC025
     FM210000 VRB03KT P6SM OVC020
     FM210600 VRB03KT 5SM -FZDZ OVC010
     FM210800 VRB03KT 4SM -FZDZ OVC006=



000
FTUS43 KMKX 201459 AAB
TAFMKE
TAF AMD
KMKE 201459Z 2015/2118 25003KT P6SM OVC070
     FM201600 VRB03KT 6SM -SN OVC025
     FM210000 19004KT P6SM OVC030
     FM210900 18007KT 6SM -FZDZ OVC010
     FM211200 18011KT 5SM -FZDZ OVC010
     FM211600 18012KT 5SM -DZ OVC015=



000
FTUS43 KMKX 201459 AAB
TAFMKE
TAF AMD
KMKE 201459Z 2015/2118 25003KT P6SM OVC070
     FM201600 VRB03KT 6SM -SN OVC025
     FM210000 19004KT P6SM OVC030
     FM210900 18007KT 6SM -FZDZ OVC010
     FM211200 18011KT 5SM -FZDZ OVC010
     FM211600 18012KT 5SM -DZ OVC015=



000
FTUS43 KMKX 201416 AAA
TAFMSN
TAF AMD
KMSN 201416Z 2014/2112 15004KT 6SM -SN BR BKN045 OVC060
     FM202000 17004KT P6SM OVC015
     FM202200 17004KT P6SM OVC025
     FM210000 VRB03KT P6SM OVC020
     FM210600 VRB03KT 5SM -FZDZ OVC010
     FM210800 VRB03KT 4SM -FZDZ OVC006=



000
FTUS43 KMKX 201416 AAA
TAFMSN
TAF AMD
KMSN 201416Z 2014/2112 15004KT 6SM -SN BR BKN045 OVC060
     FM202000 17004KT P6SM OVC015
     FM202200 17004KT P6SM OVC025
     FM210000 VRB03KT P6SM OVC020
     FM210600 VRB03KT 5SM -FZDZ OVC010
     FM210800 VRB03KT 4SM -FZDZ OVC006=



000
FTUS43 KMKX 201325 AAA
TAFMKE
TAF AMD
KMKE 201325Z 2013/2118 28004KT P6SM SCT025 OVC070
     FM201530 VRB03KT 6SM -SN OVC025
     FM210000 19004KT P6SM OVC030
     FM210900 18007KT 6SM -FZDZ OVC010
     FM211200 18011KT 5SM -FZDZ OVC010
     FM211600 18012KT 5SM -DZ OVC015=



000
FTUS43 KMKX 201325 AAA
TAFMKE
TAF AMD
KMKE 201325Z 2013/2118 28004KT P6SM SCT025 OVC070
     FM201530 VRB03KT 6SM -SN OVC025
     FM210000 19004KT P6SM OVC030
     FM210900 18007KT 6SM -FZDZ OVC010
     FM211200 18011KT 5SM -FZDZ OVC010
     FM211600 18012KT 5SM -DZ OVC015=



000
FTUS43 KMKX 201137
TAFMKE
TAF
KMKE 201137Z 2012/2118 26004KT P6SM SCT017 OVC025
     FM201400 VRB03KT 6SM -SN OVC025
     FM210000 19004KT P6SM OVC030
     FM210900 18007KT 6SM -FZDZ OVC010
     FM211200 18011KT 5SM -FZDZ OVC010
     FM211600 18012KT 5SM -DZ OVC015=



000
FTUS43 KMKX 201137
TAFMSN
TAF
KMSN 201137Z 2012/2112 00000KT 6SM -SN OVC030
     FM202000 17004KT P6SM OVC015
     FM202200 17004KT P6SM OVC025
     FM210000 VRB03KT P6SM OVC020
     FM210600 VRB03KT 5SM -FZDZ OVC010
     FM210800 VRB03KT 4SM -FZDZ OVC006=



000
FTUS43 KMKX 201137
TAFMKE
TAF
KMKE 201137Z 2012/2118 26004KT P6SM SCT017 OVC025
     FM201400 VRB03KT 6SM -SN OVC025
     FM210000 19004KT P6SM OVC030
     FM210900 18007KT 6SM -FZDZ OVC010
     FM211200 18011KT 5SM -FZDZ OVC010
     FM211600 18012KT 5SM -DZ OVC015=



000
FTUS43 KMKX 201137
TAFMSN
TAF
KMSN 201137Z 2012/2112 00000KT 6SM -SN OVC030
     FM202000 17004KT P6SM OVC015
     FM202200 17004KT P6SM OVC025
     FM210000 VRB03KT P6SM OVC020
     FM210600 VRB03KT 5SM -FZDZ OVC010
     FM210800 VRB03KT 4SM -FZDZ OVC006=



000
FTUS43 KMKX 200945 AAA
TAFMSN
TAF AMD
KMSN 200945Z 2010/2106 00000KT 6SM -SN BKN025
     FM201900 18005KT P6SM OVC025
     FM210300 17004KT P6SM OVC008=



000
FTUS43 KMKX 200945 AAA
TAFMSN
TAF AMD
KMSN 200945Z 2010/2106 00000KT 6SM -SN BKN025
     FM201900 18005KT P6SM OVC025
     FM210300 17004KT P6SM OVC008=



000
FTUS43 KMKX 200520
TAFMSN
TAF
KMSN 200520Z 2006/2106 00000KT P6SM BKN015
     FM200900 00000KT 6SM BR OVC020
     FM201800 18005KT P6SM OVC025
     FM210300 17004KT P6SM OVC008=



000
FTUS43 KMKX 200520
TAFMKE
TAF
KMKE 200520Z 2006/2112 22004KT P6SM OVC020
     FM201900 21004KT P6SM OVC035
     FM210600 21006KT P6SM OVC025
     FM211000 19005KT P6SM OVC015=



000
FTUS43 KMKX 200520
TAFMSN
TAF
KMSN 200520Z 2006/2106 00000KT P6SM BKN015
     FM200900 00000KT 6SM BR OVC020
     FM201800 18005KT P6SM OVC025
     FM210300 17004KT P6SM OVC008=



000
FTUS43 KMKX 200520
TAFMKE
TAF
KMKE 200520Z 2006/2112 22004KT P6SM OVC020
     FM201900 21004KT P6SM OVC035
     FM210600 21006KT P6SM OVC025
     FM211000 19005KT P6SM OVC015=



000
FTUS43 KMKX 200444 AAC
TAFMSN
TAF AMD
KMSN 200444Z 2005/2024 18004KT P6SM BKN014
     FM201100 VRB03KT 3SM BR OVC035
     FM201600 17004KT 5SM -FZDZ BR OVC015
     FM201800 18005KT 6SM -DZ BR OVC015
     FM201900 18005KT P6SM OVC015=



000
FTUS43 KMKX 200444 AAC
TAFMSN
TAF AMD
KMSN 200444Z 2005/2024 18004KT P6SM BKN014
     FM201100 VRB03KT 3SM BR OVC035
     FM201600 17004KT 5SM -FZDZ BR OVC015
     FM201800 18005KT 6SM -DZ BR OVC015
     FM201900 18005KT P6SM OVC015=



000
FTUS43 KMKX 200317 AAA
TAFMKE
TAF AMD
KMKE 200317Z 2003/2106 00000KT P6SM BKN030
     FM201000 VRB03KT P6SM OVC030
     FM201500 VRB03KT P6SM OVC035
     FM201800 21004KT 6SM -DZ BR OVC025
     FM202000 20004KT P6SM OVC015=



000
FTUS43 KMKX 200317 AAA
TAFMKE
TAF AMD
KMKE 200317Z 2003/2106 00000KT P6SM BKN030
     FM201000 VRB03KT P6SM OVC030
     FM201500 VRB03KT P6SM OVC035
     FM201800 21004KT 6SM -DZ BR OVC025
     FM202000 20004KT P6SM OVC015=



000
FTUS43 KMKX 200317 AAA
TAFMKE
TAF AMD
KMKE 200317Z 2003/2106 00000KT P6SM BKN030
     FM201000 VRB03KT P6SM OVC030
     FM201500 VRB03KT P6SM OVC035
     FM201800 21004KT 6SM -DZ BR OVC025
     FM202000 20004KT P6SM OVC015=



000
FTUS43 KMKX 200317 AAA
TAFMKE
TAF AMD
KMKE 200317Z 2003/2106 00000KT P6SM BKN030
     FM201000 VRB03KT P6SM OVC030
     FM201500 VRB03KT P6SM OVC035
     FM201800 21004KT 6SM -DZ BR OVC025
     FM202000 20004KT P6SM OVC015=



000
FTUS43 KMKX 200317 AAB
TAFMSN
TAF AMD
KMSN 200317Z 2003/2024 00000KT P6SM FEW015 OVC030
     FM200800 00000KT P6SM OVC035
     FM201100 VRB03KT 3SM BR OVC035
     FM201600 17004KT 5SM -FZDZ BR OVC015
     FM201800 18005KT 6SM -DZ BR OVC015
     FM201900 18005KT P6SM OVC015=



000
FTUS43 KMKX 200317 AAB
TAFMSN
TAF AMD
KMSN 200317Z 2003/2024 00000KT P6SM FEW015 OVC030
     FM200800 00000KT P6SM OVC035
     FM201100 VRB03KT 3SM BR OVC035
     FM201600 17004KT 5SM -FZDZ BR OVC015
     FM201800 18005KT 6SM -DZ BR OVC015
     FM201900 18005KT P6SM OVC015=



000
FTUS43 KMKX 200317 AAB
TAFMSN
TAF AMD
KMSN 200317Z 2003/2024 00000KT P6SM FEW015 OVC030
     FM200800 00000KT P6SM OVC035
     FM201100 VRB03KT 3SM BR OVC035
     FM201600 17004KT 5SM -FZDZ BR OVC015
     FM201800 18005KT 6SM -DZ BR OVC015
     FM201900 18005KT P6SM OVC015=



000
FTUS43 KMKX 200317 AAB
TAFMSN
TAF AMD
KMSN 200317Z 2003/2024 00000KT P6SM FEW015 OVC030
     FM200800 00000KT P6SM OVC035
     FM201100 VRB03KT 3SM BR OVC035
     FM201600 17004KT 5SM -FZDZ BR OVC015
     FM201800 18005KT 6SM -DZ BR OVC015
     FM201900 18005KT P6SM OVC015=



000
FTUS43 KMKX 200217 AAA
TAFMSN
TAF AMD
KMSN 200217Z 2002/2024 00000KT P6SM FEW015 OVC030
     FM200800 00000KT P6SM OVC035
     FM201100 VRB03KT 3SM -FZDZ BR OVC035
     FM201600 17004KT 5SM -FZDZ BR OVC035
     FM201700 17005KT 6SM -FZDZ BR OVC015
     FM201800 18005KT 6SM -DZ BR OVC015
     FM201900 18005KT P6SM OVC015=



000
FTUS43 KMKX 200217 AAA
TAFMSN
TAF AMD
KMSN 200217Z 2002/2024 00000KT P6SM FEW015 OVC030
     FM200800 00000KT P6SM OVC035
     FM201100 VRB03KT 3SM -FZDZ BR OVC035
     FM201600 17004KT 5SM -FZDZ BR OVC035
     FM201700 17005KT 6SM -FZDZ BR OVC015
     FM201800 18005KT 6SM -DZ BR OVC015
     FM201900 18005KT P6SM OVC015=



000
FTUS43 KMKX 192320
TAFMSN
TAF
KMSN 192320Z 2000/2024 00000KT P6SM OVC015
     FM200200 00000KT P6SM OVC020
     FM200800 00000KT P6SM OVC035
     FM201100 VRB03KT 3SM -FZDZ BR OVC035
     FM201600 17004KT 5SM -FZDZ BR OVC035
     FM201700 17005KT 6SM -FZDZ BR OVC015
     FM201800 18005KT 6SM -DZ BR OVC015
     FM201900 18005KT P6SM OVC015=



000
FTUS43 KMKX 192320
TAFMKE
TAF
KMKE 192320Z 2000/2106 23004KT P6SM BKN035
     FM200200 00000KT P6SM OVC035
     FM201000 VRB03KT P6SM OVC030
     FM201500 VRB03KT P6SM OVC035
     FM201800 21004KT 6SM -DZ BR OVC025
     FM202000 20004KT P6SM OVC015=



000
FTUS43 KMKX 192320
TAFMKE
TAF
KMKE 192320Z 2000/2106 23004KT P6SM BKN035
     FM200200 00000KT P6SM OVC035
     FM201000 VRB03KT P6SM OVC030
     FM201500 VRB03KT P6SM OVC035
     FM201800 21004KT 6SM -DZ BR OVC025
     FM202000 20004KT P6SM OVC015=



000
FTUS43 KMKX 192320
TAFMSN
TAF
KMSN 192320Z 2000/2024 00000KT P6SM OVC015
     FM200200 00000KT P6SM OVC020
     FM200800 00000KT P6SM OVC035
     FM201100 VRB03KT 3SM -FZDZ BR OVC035
     FM201600 17004KT 5SM -FZDZ BR OVC035
     FM201700 17005KT 6SM -FZDZ BR OVC015
     FM201800 18005KT 6SM -DZ BR OVC015
     FM201900 18005KT P6SM OVC015=



000
FTUS43 KMKX 192127 AAC
TAFMKE
TAF AMD
KMKE 192127Z 1921/2024 00000KT P6SM BKN035
     FM200300 00000KT P6SM OVC035
     FM201700 22004KT 6SM -DZ BR OVC025
     FM201900 22004KT P6SM OVC030=



000
FTUS43 KMKX 192127 AAC
TAFMSN
TAF AMD
KMSN 192127Z 1921/2018 00000KT P6SM OVC014
     FM200500 VRB03KT P6SM OVC025
     FM201100 VRB03KT 3SM -FZDZ BR OVC025
     FM201300 18004KT 5SM -FZDZ BR OVC020
     FM201700 18005KT 6SM -DZ BR OVC020=



000
FTUS43 KMKX 192127 AAC
TAFMSN
TAF AMD
KMSN 192127Z 1921/2018 00000KT P6SM OVC014
     FM200500 VRB03KT P6SM OVC025
     FM201100 VRB03KT 3SM -FZDZ BR OVC025
     FM201300 18004KT 5SM -FZDZ BR OVC020
     FM201700 18005KT 6SM -DZ BR OVC020=



000
FTUS43 KMKX 192127 AAC
TAFMKE
TAF AMD
KMKE 192127Z 1921/2024 00000KT P6SM BKN035
     FM200300 00000KT P6SM OVC035
     FM201700 22004KT 6SM -DZ BR OVC025
     FM201900 22004KT P6SM OVC030=



000
FTUS43 KMKX 191740 AAB
TAFMKE
TAF AMD
KMKE 191740Z 1918/2024 26006KT P6SM BKN035
     FM200200 VRB03KT P6SM OVC025
     FM201200 23004KT 6SM BR OVC020=



000
FTUS43 KMKX 191740 AAB
TAFMSN
TAF AMD
KMSN 191740Z 1918/2018 18005KT P6SM OVC018
     FM200200 VRB03KT P6SM OVC025
     FM201200 18004KT 6SM BR OVC020=



000
FTUS43 KMKX 191506 AAA
TAFMKE
TAF AMD
KMKE 191506Z 1915/2018 31007KT P6SM BKN025
     FM192200 32004KT P6SM SCT030 SCT050
     FM200300 00000KT P6SM BKN030
     FM201000 23003KT P6SM OVC020=



000
FTUS43 KMKX 191506 AAA
TAFMKE
TAF AMD
KMKE 191506Z 1915/2018 31007KT P6SM BKN025
     FM192200 32004KT P6SM SCT030 SCT050
     FM200300 00000KT P6SM BKN030
     FM201000 23003KT P6SM OVC020=



000
FTUS43 KMKX 191458 AAA
TAFMSN
TAF AMD
KMSN 191458Z 1915/2012 VRB03KT P6SM OVC013
     FM192300 19003KT P6SM BKN025
     FM200500 00000KT P6SM SCT015 BKN030=



000
FTUS43 KMKX 191138
TAFMSN
TAF
KMSN 191138Z 1912/2012 VRB03KT P6SM OVC015
     FM192300 19003KT P6SM BKN025
     FM200500 00000KT P6SM SCT015 BKN030=



000
FTUS43 KMKX 191138
TAFMKE
TAF
KMKE 191138Z 1912/2018 32005KT P6SM BKN025
      TEMPO 1913/1915 SCT025
     FM191500 31004KT P6SM SCT025
      TEMPO 1915/1918 BKN025
     FM192200 32004KT P6SM SCT030 SCT050
     FM200300 00000KT P6SM BKN030
     FM201000 23003KT P6SM OVC020=



000
FTUS43 KMKX 191138
TAFMSN
TAF
KMSN 191138Z 1912/2012 VRB03KT P6SM OVC015
     FM192300 19003KT P6SM BKN025
     FM200500 00000KT P6SM SCT015 BKN030=



000
FTUS43 KMKX 191138
TAFMKE
TAF
KMKE 191138Z 1912/2018 32005KT P6SM BKN025
      TEMPO 1913/1915 SCT025
     FM191500 31004KT P6SM SCT025
      TEMPO 1915/1918 BKN025
     FM192200 32004KT P6SM SCT030 SCT050
     FM200300 00000KT P6SM BKN030
     FM201000 23003KT P6SM OVC020=



000
FTUS43 KMKX 190840 AAA
TAFMKE
TAF AMD
KMKE 190840Z 1909/2012 32005KT P6SM OVC022
     FM191200 32005KT P6SM SCT025
     FM200000 23004KT P6SM SCT025
     FM200200 00000KT P6SM SCT060
     FM200900 VRB03KT P6SM BKN035=



000
FTUS43 KMKX 190840 AAA
TAFMKE
TAF AMD
KMKE 190840Z 1909/2012 32005KT P6SM OVC022
     FM191200 32005KT P6SM SCT025
     FM200000 23004KT P6SM SCT025
     FM200200 00000KT P6SM SCT060
     FM200900 VRB03KT P6SM BKN035=



000
FTUS43 KMKX 190530
TAFMKE
TAF
KMKE 190530Z 1906/2012 32005KT P6SM BKN025
     FM191100 32005KT P6SM SCT025
     FM200000 23004KT P6SM SCT025
     FM200200 00000KT P6SM SCT060
     FM200900 VRB03KT P6SM BKN035=



000
FTUS43 KMKX 190530
TAFMSN
TAF
KMSN 190530Z 1906/2006 00000KT P6SM BKN018
     FM192000 00000KT P6SM SCT020
     FM200400 VRB03KT P6SM SCT020 BKN080=



000
FTUS43 KMKX 190530
TAFMKE
TAF
KMKE 190530Z 1906/2012 32005KT P6SM BKN025
     FM191100 32005KT P6SM SCT025
     FM200000 23004KT P6SM SCT025
     FM200200 00000KT P6SM SCT060
     FM200900 VRB03KT P6SM BKN035=



000
FTUS43 KMKX 190115 AAA
TAFMKE
TAF AMD
KMKE 190115Z 1901/2006 33006KT P6SM BKN015 OVC022
      TEMPO 1901/1903 6SM -FZDZSN
     FM190500 33006KT P6SM OVC025
     FM192000 00000KT P6SM BKN025
     FM200300 00000KT P6SM SCT025
     FM200500 VRB03KT P6SM BKN025=



000
FTUS43 KMKX 190115 AAA
TAFMKE
TAF AMD
KMKE 190115Z 1901/2006 33006KT P6SM BKN015 OVC022
      TEMPO 1901/1903 6SM -FZDZSN
     FM190500 33006KT P6SM OVC025
     FM192000 00000KT P6SM BKN025
     FM200300 00000KT P6SM SCT025
     FM200500 VRB03KT P6SM BKN025=



000
FTUS43 KMKX 182338
TAFMKE
TAF
KMKE 182338Z 1900/2006 33006KT P6SM BKN015 OVC022
     FM190500 33006KT P6SM OVC025
     FM192000 00000KT P6SM BKN025
     FM200300 00000KT P6SM SCT025
     FM200500 VRB03KT P6SM BKN025=



000
FTUS43 KMKX 182338
TAFMSN
TAF
KMSN 182338Z 1900/1924 33003KT P6SM OVC015
      TEMPO 1900/1901 -SN
     FM190500 00000KT P6SM BKN025
     FM191700 00000KT P6SM SCT025
     FM192300 00000KT P6SM BKN025=



000
FTUS43 KMKX 182338
TAFMKE
TAF
KMKE 182338Z 1900/2006 33006KT P6SM BKN015 OVC022
     FM190500 33006KT P6SM OVC025
     FM192000 00000KT P6SM BKN025
     FM200300 00000KT P6SM SCT025
     FM200500 VRB03KT P6SM BKN025=



000
FTUS43 KMKX 182338
TAFMSN
TAF
KMSN 182338Z 1900/1924 33003KT P6SM OVC015
      TEMPO 1900/1901 -SN
     FM190500 00000KT P6SM BKN025
     FM191700 00000KT P6SM SCT025
     FM192300 00000KT P6SM BKN025=



000
FTUS43 KMKX 182108 AAA
TAFMKE
TAF AMD
KMKE 182108Z 1821/1924 33006KT P6SM OVC012
     FM190200 33006KT P6SM OVC025
     FM192000 00000KT P6SM BKN025=



000
FTUS43 KMKX 182108 AAA
TAFMKE
TAF AMD
KMKE 182108Z 1821/1924 33006KT P6SM OVC012
     FM190200 33006KT P6SM OVC025
     FM192000 00000KT P6SM BKN025=



000
FTUS43 KMKX 182107 AAA
TAFMSN
TAF AMD
KMSN 182107Z 1821/1918 33005KT P6SM OVC015
     FM190000 00000KT P6SM BKN020
     FM191300 00000KT P6SM SCT025=



000
FTUS43 KMKX 182107 AAA
TAFMSN
TAF AMD
KMSN 182107Z 1821/1918 33005KT P6SM OVC015
     FM190000 00000KT P6SM BKN020
     FM191300 00000KT P6SM SCT025=



000
FTUS43 KMKX 181739
TAFMSN
TAF
KMSN 181739Z 1818/1918 30005KT P6SM OVC015
     FM190000 00000KT P6SM BKN020
     FM191300 00000KT P6SM SCT025=



000
FTUS43 KMKX 181739
TAFMSN
TAF
KMSN 181739Z 1818/1918 30005KT P6SM OVC015
     FM190000 00000KT P6SM BKN020
     FM191300 00000KT P6SM SCT025=



000
FTUS43 KMKX 181739
TAFMKE
TAF
KMKE 181739Z 1818/1924 30008KT P6SM -FZDZ OVC015
     FM182100 33006KT P6SM OVC015
     FM190200 33006KT P6SM OVC025
     FM192000 00000KT P6SM BKN025=



000
FTUS43 KMKX 181739
TAFMKE
TAF
KMKE 181739Z 1818/1924 30008KT P6SM -FZDZ OVC015
     FM182100 33006KT P6SM OVC015
     FM190200 33006KT P6SM OVC025
     FM192000 00000KT P6SM BKN025=



000
FTUS43 KMKX 181555 AAB
TAFMKE
TAF AMD
KMKE 181555Z 1816/1918 31006KT P6SM -FZDZ OVC025
     FM181800 31005KT P6SM OVC015
     FM190300 32005KT P6SM OVC020
     FM191300 32005KT P6SM SCT035=



000
FTUS43 KMKX 181555 AAB
TAFMKE
TAF AMD
KMKE 181555Z 1816/1918 31006KT P6SM -FZDZ OVC025
     FM181800 31005KT P6SM OVC015
     FM190300 32005KT P6SM OVC020
     FM191300 32005KT P6SM SCT035=



000
FTUS43 KMKX 181446 AAA
TAFMKE
TAF AMD
KMKE 181446Z 1815/1918 26005KT P6SM BKN025
     FM181600 31006KT P6SM OVC015
     FM190300 32005KT P6SM OVC020
     FM191300 32005KT P6SM SCT035=



000
FTUS43 KMKX 181446 AAA
TAFMKE
TAF AMD
KMKE 181446Z 1815/1918 26005KT P6SM BKN025
     FM181600 31006KT P6SM OVC015
     FM190300 32005KT P6SM OVC020
     FM191300 32005KT P6SM SCT035=



000
FTUS43 KMKX 181441 AAB
TAFMSN
TAF AMD
KMSN 181441Z 1815/1912 VRB04KT P6SM OVC015
     FM190600 VRB03KT P6SM OVC015=



000
FTUS43 KMKX 181305 AAA
TAFMSN
TAF AMD
KMSN 181305Z 1813/1912 31004KT P6SM OVC015
     FM190600 VRB03KT P6SM OVC015=



000
FTUS43 KMKX 181305 AAA
TAFMSN
TAF AMD
KMSN 181305Z 1813/1912 31004KT P6SM OVC015
     FM190600 VRB03KT P6SM OVC015=



000
FTUS43 KMKX 181305 AAA
TAFMSN
TAF AMD
KMSN 181305Z 1813/1912 31004KT P6SM OVC015
     FM190600 VRB03KT P6SM OVC015=



000
FTUS43 KMKX 181305 AAA
TAFMSN
TAF AMD
KMSN 181305Z 1813/1912 31004KT P6SM OVC015
     FM190600 VRB03KT P6SM OVC015=



000
FTUS43 KMKX 181125
TAFMKE
TAF
KMKE 181125Z 1812/1918 31005KT P6SM SKC
     FM181300 31006KT P6SM SCT025
      TEMPO 1814/1816 BKN025
     FM181600 31006KT P6SM BKN025
     FM190300 32005KT P6SM OVC020
     FM191300 32005KT P6SM SCT035=



000
FTUS43 KMKX 181125
TAFMSN
TAF
KMSN 181125Z 1812/1912 31004KT P6SM SCT018
      TEMPO 1812/1814 BKN018
     FM181400 31004KT P6SM OVC018
     FM190600 VRB03KT P6SM OVC015=



000
FTUS43 KMKX 181125
TAFMKE
TAF
KMKE 181125Z 1812/1918 31005KT P6SM SKC
     FM181300 31006KT P6SM SCT025
      TEMPO 1814/1816 BKN025
     FM181600 31006KT P6SM BKN025
     FM190300 32005KT P6SM OVC020
     FM191300 32005KT P6SM SCT035=



000
FTUS43 KMKX 181125
TAFMSN
TAF
KMSN 181125Z 1812/1912 31004KT P6SM SCT018
      TEMPO 1812/1814 BKN018
     FM181400 31004KT P6SM OVC018
     FM190600 VRB03KT P6SM OVC015=



    US Dept of Commerce
    National Oceanic and Atmospheric Administration
    National Weather Service
    1325 East West Highway
    Silver Spring, MD 20910
    Page Author: NWS Internet Services Team
Disclaimer
Information Quality
Credits
Glossary
Privacy Policy
Freedom of Information Act (FOIA)
About Us
Career Opportunities